createdAt,value
2022-12-14T00:00:14.089Z,86.28
2022-12-14T00:01:14.059Z,86.70
2022-12-14T00:02:14.120Z,86.59
2022-12-14T00:03:14.103Z,86.17
2022-12-14T00:04:14.045Z,86.10
2022-12-14T00:05:14.034Z,86.00
2022-12-14T00:06:14.011Z,86.32
2022-12-14T00:07:14.000Z,86.63
2022-12-14T00:08:13.992Z,86.84
2022-12-14T00:09:13.973Z,86.91
2022-12-14T00:10:13.959Z,87.02
2022-12-14T00:11:13.930Z,86.66
2022-12-14T00:12:13.929Z,85.92
2022-12-14T00:13:13.919Z,85.50
2022-12-14T00:14:13.910Z,85.29
2022-12-14T00:15:13.891Z,84.97
2022-12-14T00:16:14.927Z,84.76
2022-12-14T00:17:13.872Z,84.97
2022-12-14T00:18:16.736Z,85.08
2022-12-14T00:19:14.840Z,85.08
2022-12-14T00:20:13.841Z,85.22
2022-12-14T00:21:14.825Z,85.22
2022-12-14T00:22:13.823Z,84.91
2022-12-14T00:23:13.791Z,84.80
2022-12-14T00:24:13.781Z,84.91
2022-12-14T00:25:13.776Z,84.91
2022-12-14T00:26:13.754Z,84.94
2022-12-14T00:27:13.739Z,85.16
2022-12-14T00:28:13.739Z,85.36
2022-12-14T00:29:13.795Z,85.47
2022-12-14T00:30:13.696Z,86.32
2022-12-14T00:31:13.745Z,86.32
2022-12-14T00:32:13.697Z,86.07
2022-12-14T00:33:13.678Z,86.49
2022-12-14T00:34:13.650Z,86.17
2022-12-14T00:35:13.640Z,85.50
2022-12-14T00:36:14.622Z,85.61
2022-12-14T00:37:13.623Z,85.39
2022-12-14T00:38:13.609Z,85.04
2022-12-14T00:39:13.591Z,85.04
2022-12-14T00:40:13.580Z,84.37
2022-12-14T00:41:13.575Z,83.42
2022-12-14T00:42:13.579Z,83.31
2022-12-14T00:43:13.585Z,83.31
2022-12-14T00:44:13.530Z,83.21
2022-12-14T00:45:13.511Z,83.36
2022-12-14T00:46:13.602Z,83.56
2022-12-14T00:47:13.481Z,83.78
2022-12-14T00:48:13.490Z,83.67
2022-12-14T00:49:13.549Z,83.78
2022-12-14T00:50:13.449Z,83.78
2022-12-14T00:51:13.446Z,83.71
2022-12-14T00:52:13.441Z,84.02
2022-12-14T00:53:13.419Z,84.45
2022-12-14T00:54:13.399Z,84.55
2022-12-14T00:55:13.396Z,84.76
2022-12-14T00:56:13.387Z,84.97
2022-12-14T00:57:13.379Z,84.91
2022-12-14T00:58:13.360Z,85.22
2022-12-14T00:59:13.349Z,85.22
2022-12-14T01:00:13.402Z,85.11
2022-12-14T01:01:13.631Z,85.43
2022-12-14T01:02:13.427Z,85.85
2022-12-14T01:03:13.368Z,85.92
2022-12-14T01:04:13.372Z,85.50
2022-12-14T01:05:13.277Z,85.08
2022-12-14T01:06:13.260Z,84.76
2022-12-14T01:07:13.249Z,84.69
2022-12-14T01:08:14.233Z,84.48
2022-12-14T01:09:13.223Z,84.80
2022-12-14T01:10:13.223Z,85.11
2022-12-14T01:11:13.184Z,85.36
2022-12-14T01:12:13.178Z,85.58
2022-12-14T01:13:14.160Z,85.79
2022-12-14T01:14:13.161Z,85.89
2022-12-14T01:15:13.205Z,85.79
2022-12-14T01:16:13.241Z,85.79
2022-12-14T01:17:13.121Z,85.30
2022-12-14T01:18:13.093Z,85.41
2022-12-14T01:19:13.110Z,85.72
2022-12-14T01:20:13.084Z,86.78
2022-12-14T01:21:13.051Z,87.20
2022-12-14T01:22:13.060Z,87.27
2022-12-14T01:23:13.044Z,87.37
2022-12-14T01:24:13.047Z,87.37
2022-12-14T01:25:13.022Z,87.37
2022-12-14T01:26:13.021Z,87.27
2022-12-14T01:27:12.990Z,86.95
2022-12-14T01:28:12.980Z,86.42
2022-12-14T01:29:12.990Z,86.10
2022-12-14T01:30:12.973Z,86.00
2022-12-14T01:31:13.017Z,85.89
2022-12-14T01:32:12.928Z,86.10
2022-12-14T01:33:12.905Z,86.32
2022-12-14T01:34:12.929Z,86.21
2022-12-14T01:35:12.901Z,86.10
2022-12-14T01:36:12.872Z,86.10
2022-12-14T01:37:12.857Z,86.21
2022-12-14T01:38:12.850Z,86.21
2022-12-14T01:39:12.850Z,86.15
2022-12-14T01:40:12.831Z,86.42
2022-12-14T01:41:12.820Z,86.95
2022-12-14T01:42:12.800Z,87.02
2022-12-14T01:43:12.792Z,86.55
2022-12-14T01:44:12.799Z,86.10
2022-12-14T01:45:12.760Z,85.14
2022-12-14T01:46:12.801Z,84.41
2022-12-14T01:47:13.120Z,83.95
2022-12-14T01:48:12.732Z,83.53
2022-12-14T01:49:12.722Z,83.59
2022-12-14T01:50:12.712Z,82.82
2022-12-14T01:51:12.691Z,82.29
2022-12-14T01:52:12.710Z,81.84
2022-12-14T01:53:12.650Z,81.31
2022-12-14T01:54:12.691Z,80.89
2022-12-14T01:55:12.645Z,80.68
2022-12-14T01:56:12.632Z,80.79
2022-12-14T01:57:12.624Z,80.82
2022-12-14T01:58:12.582Z,81.20
2022-12-14T01:59:12.594Z,80.99
2022-12-14T02:00:12.564Z,80.99
2022-12-14T02:01:12.608Z,81.13
2022-12-14T02:02:12.674Z,81.56
2022-12-14T02:03:12.665Z,81.24
2022-12-14T02:04:13.632Z,81.49
2022-12-14T02:05:12.502Z,82.33
2022-12-14T02:06:12.501Z,82.65
2022-12-14T02:07:12.506Z,83.07
2022-12-14T02:08:12.465Z,82.82
2022-12-14T02:09:12.463Z,82.50
2022-12-14T02:10:12.457Z,82.19
2022-12-14T02:11:12.443Z,81.66
2022-12-14T02:12:12.420Z,81.66
2022-12-14T02:13:12.400Z,82.12
2022-12-14T02:14:12.402Z,82.54
2022-12-14T02:15:12.384Z,82.33
2022-12-14T02:16:12.416Z,82.54
2022-12-14T02:17:12.351Z,82.86
2022-12-14T02:18:12.353Z,82.43
2022-12-14T02:19:12.331Z,82.23
2022-12-14T02:20:12.342Z,82.79
2022-12-14T02:21:13.330Z,83.31
2022-12-14T02:22:12.310Z,83.53
2022-12-14T02:23:12.281Z,83.56
2022-12-14T02:24:12.280Z,83.56
2022-12-14T02:25:12.264Z,84.09
2022-12-14T02:26:19.790Z,84.30
2022-12-14T02:27:12.230Z,84.41
2022-12-14T02:28:12.218Z,84.23
2022-12-14T02:29:12.211Z,84.45
2022-12-14T02:30:12.217Z,84.45
2022-12-14T02:31:12.258Z,84.55
2022-12-14T02:32:12.167Z,84.97
2022-12-14T02:33:12.186Z,85.39
2022-12-14T02:34:12.165Z,85.61
2022-12-14T02:35:12.141Z,85.14
2022-12-14T02:36:12.129Z,84.72
2022-12-14T02:37:12.099Z,84.62
2022-12-14T02:38:12.099Z,84.66
2022-12-14T02:39:12.100Z,84.83
2022-12-14T02:40:12.079Z,84.62
2022-12-14T02:41:12.049Z,84.62
2022-12-14T02:42:12.052Z,84.72
2022-12-14T02:43:12.035Z,84.83
2022-12-14T02:44:12.022Z,84.83
2022-12-14T02:45:12.043Z,84.41
2022-12-14T02:46:12.062Z,84.62
2022-12-14T02:47:12.056Z,84.89
2022-12-14T02:48:11.996Z,84.79
2022-12-14T02:49:11.961Z,83.95
2022-12-14T02:50:11.959Z,83.31
2022-12-14T02:51:11.953Z,83.21
2022-12-14T02:52:11.919Z,83.73
2022-12-14T02:53:11.907Z,83.81
2022-12-14T02:54:11.907Z,83.56
2022-12-14T02:55:11.890Z,83.03
2022-12-14T02:56:11.860Z,82.26
2022-12-14T02:57:11.858Z,81.62
2022-12-14T02:58:11.840Z,81.80
2022-12-14T02:59:11.832Z,80.75
2022-12-14T03:00:11.837Z,80.01
2022-12-14T03:01:11.950Z,79.69
2022-12-14T03:02:11.834Z,79.59
2022-12-14T03:03:11.778Z,79.69
2022-12-14T03:04:11.789Z,79.59
2022-12-14T03:05:11.774Z,79.17
2022-12-14T03:06:11.760Z,79.41
2022-12-14T03:07:11.736Z,79.63
2022-12-14T03:08:11.715Z,80.05
2022-12-14T03:09:11.721Z,80.15
2022-12-14T03:10:11.708Z,80.15
2022-12-14T03:11:11.684Z,80.15
2022-12-14T03:12:11.681Z,80.51
2022-12-14T03:13:11.648Z,81.13
2022-12-14T03:14:11.640Z,81.17
2022-12-14T03:15:11.641Z,81.95
2022-12-14T03:16:11.675Z,82.47
2022-12-14T03:17:14.172Z,83.00
2022-12-14T03:18:12.592Z,83.21
2022-12-14T03:19:11.578Z,83.14
2022-12-14T03:20:12.573Z,83.46
2022-12-14T03:21:11.551Z,83.56
2022-12-14T03:22:11.556Z,83.56
2022-12-14T03:23:11.548Z,83.36
2022-12-14T03:24:11.510Z,83.36
2022-12-14T03:25:11.501Z,83.98
2022-12-14T03:26:11.581Z,83.84
2022-12-14T03:27:11.493Z,84.16
2022-12-14T03:28:11.480Z,83.70
2022-12-14T03:29:11.465Z,83.03
2022-12-14T03:30:11.439Z,82.40
2022-12-14T03:31:11.507Z,82.04
2022-12-14T03:32:11.410Z,81.35
2022-12-14T03:33:11.409Z,81.03
2022-12-14T03:34:13.480Z,81.24
2022-12-14T03:35:11.382Z,81.56
2022-12-14T03:36:11.370Z,81.91
2022-12-14T03:37:11.355Z,81.81
2022-12-14T03:38:11.341Z,82.33
2022-12-14T03:39:11.343Z,81.81
2022-12-14T03:40:11.310Z,81.70
2022-12-14T03:41:11.323Z,81.81
2022-12-14T03:42:11.289Z,82.26
2022-12-14T03:43:11.273Z,83.00
2022-12-14T03:44:11.275Z,83.36
2022-12-14T03:45:11.252Z,83.67
2022-12-14T03:46:11.312Z,83.98
2022-12-14T03:47:11.220Z,84.09
2022-12-14T03:48:11.202Z,84.20
2022-12-14T03:49:11.211Z,84.72
2022-12-14T03:50:11.190Z,84.62
2022-12-14T04:03:57.521Z,83.46
2022-12-14T04:04:57.590Z,83.46
2022-12-14T04:05:57.540Z,83.78
2022-12-14T04:06:57.512Z,83.88
2022-12-14T04:07:57.451Z,83.71
2022-12-14T04:08:57.521Z,83.60
2022-12-14T04:09:57.533Z,83.81
2022-12-14T04:10:57.431Z,84.34
2022-12-14T04:11:57.402Z,84.69
2022-12-14T04:12:57.454Z,84.80
2022-12-14T04:13:57.382Z,84.91
2022-12-14T04:14:57.373Z,85.22
2022-12-14T04:15:57.420Z,85.33
2022-12-14T04:16:57.390Z,85.01
2022-12-14T04:17:57.385Z,85.22
2022-12-14T04:18:59.740Z,85.64
2022-12-14T04:20:18.393Z,85.92
2022-12-14T04:20:57.307Z,85.78
2022-12-14T04:21:57.351Z,85.36
2022-12-14T04:22:57.311Z,84.79
2022-12-14T04:23:57.324Z,84.23
2022-12-14T04:24:57.331Z,83.17
2022-12-14T04:25:57.260Z,82.54
2022-12-14T04:26:57.230Z,82.29
2022-12-14T04:27:57.242Z,82.08
2022-12-14T04:28:57.251Z,81.98
2022-12-14T04:29:57.303Z,81.77
2022-12-14T04:30:57.210Z,81.24
2022-12-14T04:31:57.206Z,81.17
2022-12-14T04:32:57.195Z,80.75
2022-12-14T04:33:57.122Z,81.63
2022-12-14T04:34:57.261Z,82.26
2022-12-14T04:35:57.203Z,82.72
2022-12-14T04:36:57.105Z,83.14
2022-12-14T04:37:57.061Z,83.63
2022-12-14T04:38:57.063Z,83.73
2022-12-14T04:39:57.075Z,83.49
2022-12-14T04:40:57.041Z,82.79
2022-12-14T04:41:57.047Z,82.43
2022-12-14T04:42:57.011Z,82.33
2022-12-14T04:43:57.052Z,82.33
2022-12-14T04:44:57.094Z,82.65
2022-12-14T04:45:57.050Z,82.54
2022-12-14T04:46:57.011Z,82.43
2022-12-14T04:47:56.940Z,82.12
2022-12-14T04:48:56.988Z,81.77
2022-12-14T04:49:56.932Z,81.38
2022-12-14T04:50:57.025Z,81.59
2022-12-14T04:52:01.923Z,82.01
2022-12-14T04:52:57.890Z,82.12
2022-12-14T04:53:56.870Z,82.16
2022-12-14T04:54:57.895Z,82.05
2022-12-14T04:55:56.940Z,82.37
2022-12-14T04:56:56.853Z,82.47
2022-12-14T04:57:56.823Z,82.82
2022-12-14T04:58:56.855Z,83.31
2022-12-14T04:59:56.800Z,83.14
2022-12-14T05:00:56.987Z,83.21
2022-12-14T05:01:57.041Z,83.53
2022-12-14T05:02:56.780Z,83.28
2022-12-14T05:03:56.792Z,82.43
2022-12-14T05:04:56.731Z,82.16
2022-12-14T05:05:57.753Z,82.37
2022-12-14T05:06:56.801Z,83.00
2022-12-14T05:07:56.694Z,83.17
2022-12-14T05:08:56.679Z,82.65
2022-12-14T05:09:56.715Z,81.98
2022-12-14T05:11:14.927Z,81.81
2022-12-14T05:11:57.630Z,81.81
2022-12-14T05:12:56.641Z,82.01
2022-12-14T05:13:56.643Z,82.68
2022-12-14T05:14:56.601Z,82.97
2022-12-14T05:15:56.690Z,82.01
2022-12-14T05:16:56.761Z,81.49
2022-12-14T05:17:56.562Z,81.70
2022-12-14T05:18:56.595Z,82.05
2022-12-14T05:19:56.580Z,82.37
2022-12-14T05:20:56.631Z,82.16
2022-12-14T05:21:56.595Z,82.30
2022-12-14T05:22:56.615Z,82.65
2022-12-14T05:23:56.503Z,83.29
2022-12-14T05:24:56.461Z,83.81
2022-12-14T05:25:56.595Z,83.85
2022-12-14T05:26:56.443Z,83.95
2022-12-14T05:27:56.544Z,84.20
2022-12-14T05:28:56.440Z,84.84
2022-12-14T05:29:56.407Z,84.94
2022-12-14T05:30:56.580Z,84.94
2022-12-14T05:31:56.387Z,85.16
2022-12-14T05:32:56.486Z,85.41
2022-12-14T05:33:56.374Z,85.51
2022-12-14T05:34:56.331Z,85.83
2022-12-14T05:35:56.392Z,86.25
2022-12-14T05:36:56.432Z,86.67
2022-12-14T05:37:56.301Z,86.99
2022-12-14T05:38:56.326Z,87.20
2022-12-14T05:39:56.283Z,87.52
2022-12-14T05:40:56.322Z,87.58
2022-12-14T05:41:56.370Z,87.48
2022-12-14T05:42:56.359Z,87.54
2022-12-14T05:43:56.232Z,86.98
2022-12-14T05:44:56.242Z,86.10
2022-12-14T05:45:56.217Z,85.57
2022-12-14T05:46:56.300Z,84.72
2022-12-14T05:47:56.262Z,84.62
2022-12-14T05:48:56.165Z,84.52
2022-12-14T05:49:56.172Z,84.52
2022-12-14T05:50:56.133Z,84.52
2022-12-14T05:51:56.153Z,84.62
2022-12-14T05:52:56.201Z,84.41
2022-12-14T05:53:56.102Z,84.37
2022-12-14T05:54:59.504Z,84.05
2022-12-14T05:55:57.146Z,83.46
2022-12-14T05:56:57.078Z,83.46
2022-12-14T05:57:56.072Z,83.46
2022-12-14T05:58:56.153Z,83.60
2022-12-14T05:59:56.058Z,84.02
2022-12-14T06:00:56.023Z,84.13
2022-12-14T06:01:56.124Z,84.45
2022-12-14T06:02:56.122Z,84.66
2022-12-14T06:03:57.020Z,84.55
2022-12-14T06:04:55.972Z,84.45
2022-12-14T06:05:55.952Z,84.66
2022-12-14T06:06:56.025Z,84.91
2022-12-14T06:07:55.995Z,85.18
2022-12-14T06:08:55.920Z,85.50
2022-12-14T06:09:55.892Z,85.50
2022-12-14T06:10:55.881Z,85.18
2022-12-14T06:11:55.892Z,85.18
2022-12-14T06:12:55.932Z,85.25
2022-12-14T06:13:55.850Z,84.79
2022-12-14T06:14:55.820Z,83.91
2022-12-14T06:15:55.854Z,83.28
2022-12-14T06:16:55.822Z,83.00
2022-12-14T06:17:55.792Z,83.21
2022-12-14T06:18:55.787Z,83.42
2022-12-14T06:19:55.775Z,83.73
2022-12-14T06:20:55.761Z,83.95
2022-12-14T06:21:55.751Z,83.63
2022-12-14T06:22:55.722Z,83.42
2022-12-14T06:23:55.738Z,83.28
2022-12-14T06:24:55.765Z,83.17
2022-12-14T06:25:55.762Z,83.39
2022-12-14T06:26:55.700Z,83.91
2022-12-14T06:27:55.702Z,83.66
2022-12-14T06:28:55.679Z,83.34
2022-12-14T06:29:55.652Z,82.89
2022-12-14T06:30:55.688Z,82.11
2022-12-14T06:31:55.634Z,81.27
2022-12-14T06:32:55.942Z,80.60
2022-12-14T06:33:55.603Z,80.50
2022-12-14T06:34:55.574Z,80.11
2022-12-14T06:35:55.574Z,80.33
2022-12-14T06:36:55.562Z,80.82
2022-12-14T06:37:55.563Z,80.15
2022-12-14T06:38:55.565Z,79.52
2022-12-14T06:39:55.519Z,78.99
2022-12-14T06:40:55.504Z,78.57
2022-12-14T06:41:55.515Z,78.78
2022-12-14T06:42:55.470Z,79.13
2022-12-14T06:43:55.462Z,79.10
2022-12-14T06:44:55.456Z,78.89
2022-12-14T06:45:56.534Z,78.89
2022-12-14T06:46:55.455Z,78.78
2022-12-14T06:47:55.412Z,78.89
2022-12-14T06:48:55.385Z,78.78
2022-12-14T06:49:55.411Z,78.99
2022-12-14T06:50:55.374Z,78.47
2022-12-14T06:51:55.417Z,78.47
2022-12-14T06:52:55.354Z,78.05
2022-12-14T06:53:55.332Z,78.05
2022-12-14T06:54:55.324Z,77.73
2022-12-14T06:55:55.350Z,78.40
2022-12-14T06:56:55.311Z,79.45
2022-12-14T06:57:55.297Z,79.80
2022-12-14T06:58:55.297Z,80.22
2022-12-14T06:59:55.265Z,80.54
2022-12-14T07:00:55.245Z,80.79
2022-12-14T07:01:55.347Z,81.20
2022-12-14T07:02:55.383Z,81.62
2022-12-14T07:03:55.261Z,82.08
2022-12-14T07:04:55.275Z,82.46
2022-12-14T07:05:55.195Z,82.26
2022-12-14T07:06:55.195Z,81.73
2022-12-14T07:07:55.209Z,82.15
2022-12-14T07:08:55.143Z,82.36
2022-12-14T07:09:55.235Z,82.04
2022-12-14T07:11:00.529Z,81.84
2022-12-14T07:11:56.136Z,81.66
2022-12-14T07:12:55.177Z,82.08
2022-12-14T07:13:55.133Z,82.36
2022-12-14T07:14:55.099Z,82.04
2022-12-14T07:15:55.156Z,81.84
2022-12-14T07:16:56.101Z,81.62
2022-12-14T07:17:55.067Z,81.94
2022-12-14T07:18:55.065Z,81.41
2022-12-14T07:19:55.007Z,81.27
2022-12-14T07:20:54.983Z,80.75
2022-12-14T07:21:55.093Z,80.96
2022-12-14T07:22:55.002Z,81.02
2022-12-14T07:23:54.968Z,80.78
2022-12-14T07:24:55.022Z,79.73
2022-12-14T07:25:55.018Z,79.06
2022-12-14T07:26:54.916Z,78.64
2022-12-14T07:27:57.019Z,78.19
2022-12-14T07:28:54.921Z,78.08
2022-12-14T07:29:54.902Z,77.66
2022-12-14T07:30:54.995Z,77.34
2022-12-14T07:31:54.856Z,77.10
2022-12-14T07:32:54.888Z,76.75
2022-12-14T07:33:54.825Z,76.43
2022-12-14T07:34:54.795Z,76.23
2022-12-14T07:35:54.829Z,75.92
2022-12-14T07:36:54.865Z,75.70
2022-12-14T07:37:54.807Z,75.70
2022-12-14T07:38:54.763Z,75.63
2022-12-14T07:39:54.765Z,75.95
2022-12-14T07:40:54.813Z,76.72
2022-12-14T07:41:54.805Z,77.34
2022-12-14T07:42:54.725Z,77.56
2022-12-14T07:43:54.717Z,77.48
2022-12-14T07:44:54.726Z,77.80
2022-12-14T07:45:54.704Z,78.22
2022-12-14T07:46:54.821Z,78.22
2022-12-14T07:47:54.663Z,78.33
2022-12-14T07:48:54.638Z,78.43
2022-12-14T07:49:54.679Z,78.53
2022-12-14T07:50:54.658Z,78.89
2022-12-14T07:51:56.657Z,79.21
2022-12-14T07:52:54.638Z,78.89
2022-12-14T07:53:54.577Z,79.31
2022-12-14T07:54:54.572Z,78.96
2022-12-14T07:55:54.571Z,78.64
2022-12-14T07:56:54.602Z,78.61
2022-12-14T07:57:54.538Z,78.22
2022-12-14T07:58:54.517Z,78.50
2022-12-14T07:59:57.592Z,78.19
2022-12-14T08:00:54.507Z,77.34
2022-12-14T08:01:54.553Z,77.34
2022-12-14T08:02:54.464Z,78.08
2022-12-14T08:03:55.475Z,77.98
2022-12-14T08:04:55.070Z,77.56
2022-12-14T08:05:54.606Z,77.10
2022-12-14T08:06:55.292Z,77.42
2022-12-14T08:07:54.381Z,76.57
2022-12-14T08:08:54.460Z,76.47
2022-12-14T08:09:55.414Z,76.57
2022-12-14T08:10:54.373Z,76.75
2022-12-14T08:11:54.334Z,76.02
2022-12-14T08:12:54.312Z,75.81
2022-12-14T08:13:54.341Z,75.60
2022-12-14T08:14:54.295Z,75.74
2022-12-14T08:15:55.406Z,76.47
2022-12-14T08:16:54.265Z,76.75
2022-12-14T08:17:54.325Z,76.33
2022-12-14T08:18:54.246Z,76.23
2022-12-14T08:19:54.226Z,76.23
2022-12-14T08:20:54.256Z,76.43
2022-12-14T08:21:54.194Z,76.54
2022-12-14T08:22:54.174Z,75.88
2022-12-14T08:23:54.194Z,75.15
2022-12-14T08:24:54.155Z,74.93
2022-12-14T08:25:54.165Z,75.04
2022-12-14T08:26:54.185Z,75.35
2022-12-14T08:27:54.120Z,75.35
2022-12-14T08:28:54.133Z,75.46
2022-12-14T08:29:54.094Z,75.46
2022-12-14T08:30:54.106Z,74.62
2022-12-14T08:31:54.145Z,74.52
2022-12-14T08:32:54.056Z,74.83
2022-12-14T08:33:54.056Z,74.62
2022-12-14T08:34:54.142Z,75.35
2022-12-14T08:35:54.039Z,75.01
2022-12-14T08:36:53.986Z,74.58
2022-12-14T08:37:53.997Z,74.69
2022-12-14T08:38:56.045Z,74.80
2022-12-14T08:39:53.980Z,74.38
2022-12-14T08:40:53.972Z,74.69
2022-12-14T08:41:53.957Z,74.38
2022-12-14T08:42:53.916Z,73.75
2022-12-14T08:43:54.020Z,73.93
2022-12-14T08:44:53.887Z,74.13
2022-12-14T08:45:53.912Z,73.61
2022-12-14T08:46:53.911Z,73.82
2022-12-14T08:47:53.916Z,73.26
2022-12-14T08:48:55.141Z,72.85
2022-12-14T08:49:53.825Z,72.85
2022-12-14T08:50:53.830Z,72.64
2022-12-14T08:51:53.857Z,72.85
2022-12-14T08:52:53.811Z,72.19
2022-12-14T08:53:53.903Z,71.66
2022-12-14T08:54:53.801Z,71.87
2022-12-14T08:55:53.807Z,71.80
2022-12-14T08:56:53.775Z,71.80
2022-12-14T08:57:53.718Z,71.90
2022-12-14T08:58:53.720Z,71.77
2022-12-14T09:00:02.369Z,71.45
2022-12-14T09:00:54.795Z,71.00
2022-12-14T09:01:53.924Z,70.58
2022-12-14T09:02:53.835Z,70.17
2022-12-14T09:03:54.683Z,69.92
2022-12-14T09:04:53.728Z,69.40
2022-12-14T09:05:53.649Z,69.68
2022-12-14T09:06:53.636Z,68.85
2022-12-14T09:07:53.644Z,67.91
2022-12-14T09:08:53.608Z,68.63
2022-12-14T09:09:53.678Z,68.46
2022-12-14T09:10:53.566Z,69.09
2022-12-14T09:11:53.616Z,68.95
2022-12-14T09:12:53.575Z,68.60
2022-12-14T09:15:05.066Z,67.69
2022-12-14T09:16:05.129Z,68.46
2022-12-14T09:17:05.094Z,68.91
2022-12-14T09:18:05.094Z,69.04
2022-12-14T09:19:05.034Z,69.49
2022-12-14T09:20:04.996Z,69.84
2022-12-14T09:21:05.015Z,70.47
2022-12-14T09:22:05.105Z,71.13
2022-12-14T09:23:04.966Z,70.92
2022-12-14T09:24:04.964Z,71.89
2022-12-14T09:25:04.915Z,71.89
2022-12-14T09:26:04.957Z,72.74
2022-12-14T09:27:04.906Z,73.26
2022-12-14T09:28:04.967Z,73.61
2022-12-14T09:29:04.906Z,73.08
2022-12-14T09:30:04.868Z,72.28
2022-12-14T09:31:04.833Z,73.11
2022-12-14T09:32:04.889Z,73.33
2022-12-14T09:33:04.906Z,73.43
2022-12-14T09:34:04.818Z,74.06
2022-12-14T09:35:04.799Z,74.27
2022-12-14T09:36:04.817Z,74.24
2022-12-14T09:37:04.825Z,75.07
2022-12-14T09:38:06.796Z,74.76
2022-12-14T09:39:04.930Z,74.34
2022-12-14T09:40:04.737Z,74.55
2022-12-14T09:41:07.257Z,74.76
2022-12-14T09:42:04.726Z,74.24
2022-12-14T09:43:04.679Z,74.24
2022-12-14T09:44:04.697Z,74.13
2022-12-14T09:45:04.672Z,74.44
2022-12-14T09:46:04.713Z,74.69
2022-12-14T09:47:04.686Z,75.11
2022-12-14T09:48:04.685Z,75.01
2022-12-14T10:04:07.320Z,77.87
2022-12-14T10:05:07.203Z,78.19
2022-12-14T10:06:07.173Z,78.08
2022-12-14T10:07:07.089Z,78.29
2022-12-14T10:08:07.098Z,78.39
2022-12-14T10:09:07.097Z,78.81
2022-12-14T10:10:07.270Z,79.03
2022-12-14T10:11:07.112Z,79.44
2022-12-14T10:12:07.116Z,79.66
2022-12-14T10:13:07.020Z,80.39
2022-12-14T10:14:28.032Z,80.91
2022-12-14T10:15:07.070Z,81.02
2022-12-14T10:16:07.026Z,81.44
2022-12-14T10:17:06.991Z,81.65
2022-12-14T10:18:06.979Z,81.76
2022-12-14T10:19:07.595Z,82.28
2022-12-14T10:20:06.969Z,82.81
2022-12-14T10:21:06.933Z,83.68
2022-12-14T10:22:06.978Z,84.42
2022-12-14T10:23:06.893Z,85.05
2022-12-14T10:24:06.897Z,85.57
2022-12-14T10:25:06.901Z,85.89
2022-12-14T10:26:06.871Z,86.45
2022-12-14T10:27:06.870Z,86.98
2022-12-14T10:28:11.532Z,87.50
2022-12-14T10:29:07.840Z,88.02
2022-12-14T10:30:06.838Z,88.34
2022-12-14T10:31:06.860Z,88.45
2022-12-14T10:32:06.836Z,88.55
2022-12-14T10:33:06.779Z,88.66
2022-12-14T10:34:12.008Z,88.76
2022-12-14T10:35:07.803Z,88.97
2022-12-14T10:36:07.758Z,89.07
2022-12-14T10:37:06.771Z,89.07
2022-12-14T10:38:06.750Z,89.29
2022-12-14T10:39:07.731Z,89.29
2022-12-14T10:40:13.731Z,89.39
2022-12-14T10:41:07.693Z,89.50
2022-12-14T10:42:06.701Z,89.71
2022-12-14T10:43:06.637Z,89.81
2022-12-14T10:44:06.630Z,89.71
2022-12-14T10:46:13.651Z,89.92
2022-12-14T10:47:07.683Z,90.17
2022-12-14T10:48:06.590Z,90.34
2022-12-14T10:49:06.658Z,90.23
2022-12-14T10:50:06.575Z,90.12
2022-12-14T10:51:06.650Z,90.12
2022-12-14T10:52:27.591Z,90.12
2022-12-14T10:53:06.527Z,90.12
2022-12-14T10:55:16.717Z,89.92
2022-12-14T10:56:24.293Z,89.60
2022-12-14T10:57:24.213Z,89.50
2022-12-14T10:58:25.224Z,89.35
2022-12-14T10:59:24.207Z,89.35
2022-12-14T11:00:23.169Z,89.35
2022-12-14T11:02:19.142Z,89.14
2022-12-14T11:03:27.618Z,89.35
2022-12-14T11:04:26.421Z,89.46
2022-12-14T11:05:32.518Z,89.25
2022-12-14T11:06:26.347Z,89.35
2022-12-14T11:07:18.830Z,89.46
2022-12-14T11:08:27.844Z,89.25
2022-12-14T11:09:27.314Z,89.25
2022-12-14T11:10:39.858Z,89.25
2022-12-14T11:11:26.323Z,89.14
2022-12-14T11:12:27.286Z,89.04
2022-12-14T11:13:26.250Z,89.25
2022-12-14T11:14:27.414Z,89.25
2022-12-14T11:16:41.735Z,89.25
2022-12-14T11:17:41.843Z,89.04
2022-12-14T11:18:41.648Z,89.04
2022-12-14T11:19:42.665Z,89.14
2022-12-14T11:20:41.641Z,88.93
2022-12-14T11:21:41.610Z,88.82
2022-12-14T11:23:02.625Z,88.89
2022-12-14T11:23:41.508Z,89.00
2022-12-14T11:24:41.609Z,89.00
2022-12-14T11:25:41.632Z,89.00
2022-12-14T11:26:43.552Z,89.00
2022-12-14T11:27:41.440Z,88.89
2022-12-14T11:28:41.880Z,88.89
2022-12-14T11:29:41.467Z,88.79
2022-12-14T11:30:41.495Z,88.57
2022-12-14T11:31:41.408Z,88.68
2022-12-14T11:32:41.471Z,88.79
2022-12-14T11:33:41.489Z,88.79
2022-12-14T11:34:41.398Z,88.79
2022-12-14T11:35:41.380Z,88.47
2022-12-14T11:36:41.359Z,88.37
2022-12-14T11:37:41.333Z,88.37
2022-12-14T11:38:42.372Z,88.37
2022-12-14T11:39:41.287Z,88.37
2022-12-14T11:40:41.296Z,88.16
2022-12-14T11:41:41.324Z,88.16
2022-12-14T11:42:41.270Z,88.16
2022-12-14T11:43:41.341Z,88.16
2022-12-14T11:44:41.218Z,88.16
2022-12-14T11:45:41.231Z,88.26
2022-12-14T11:47:03.289Z,88.26
2022-12-14T11:47:41.178Z,88.57
2022-12-14T11:48:41.290Z,88.47
2022-12-14T11:49:41.174Z,88.47
2022-12-14T11:50:41.224Z,88.47
2022-12-14T11:51:41.189Z,88.37
2022-12-14T11:52:41.131Z,88.47
2022-12-14T11:53:43.584Z,88.68
2022-12-14T11:54:41.093Z,88.89
2022-12-14T11:55:41.088Z,89.10
2022-12-14T11:56:41.129Z,89.21
2022-12-14T11:57:41.071Z,89.10
2022-12-14T11:58:41.134Z,89.10
2022-12-14T11:59:41.149Z,89.21
2022-12-14T12:00:46.627Z,89.31
2022-12-14T12:01:42.083Z,89.31
2022-12-14T12:02:41.056Z,89.10
2022-12-14T12:03:41.086Z,89.10
2022-12-14T12:04:40.969Z,89.21
2022-12-14T12:05:41.018Z,89.10
2022-12-14T12:06:40.998Z,89.31
2022-12-14T12:07:40.946Z,89.62
2022-12-14T12:08:40.948Z,89.73
2022-12-14T12:09:41.031Z,89.84
2022-12-14T12:10:40.958Z,89.73
2022-12-14T12:11:40.868Z,89.62
2022-12-14T12:12:40.931Z,89.62
2022-12-14T12:13:40.870Z,89.62
2022-12-14T12:14:40.928Z,89.73
2022-12-14T12:15:40.918Z,89.84
2022-12-14T12:16:40.870Z,90.05
2022-12-14T12:17:40.880Z,90.36
2022-12-14T12:18:46.288Z,90.47
2022-12-14T12:19:41.931Z,90.36
2022-12-14T12:20:40.830Z,90.47
2022-12-14T12:21:40.787Z,90.47
2022-12-14T12:22:40.798Z,90.57
2022-12-14T12:23:40.733Z,90.57
2022-12-14T12:25:24.858Z,90.67
2022-12-14T12:25:41.716Z,90.67
2022-12-14T12:26:49.879Z,90.67
2022-12-14T12:27:41.688Z,90.67
2022-12-14T12:29:01.740Z,90.89
2022-12-14T12:29:40.669Z,91.03
2022-12-14T12:30:40.713Z,91.03
2022-12-14T12:31:40.764Z,91.03
2022-12-14T12:32:40.620Z,91.14
2022-12-14T12:33:41.701Z,91.20
2022-12-14T12:34:40.609Z,91.30
2022-12-14T12:35:40.678Z,91.30
2022-12-14T12:36:51.723Z,91.35
2022-12-14T12:37:41.549Z,91.41
2022-12-14T12:38:40.640Z,91.41
2022-12-14T12:39:40.536Z,91.41
2022-12-14T12:40:41.648Z,91.41
2022-12-14T12:41:40.590Z,91.56
2022-12-14T12:42:40.535Z,91.56
2022-12-14T12:43:40.518Z,91.56
2022-12-14T12:44:40.538Z,91.66
2022-12-14T12:45:40.563Z,91.87
2022-12-14T12:46:48.501Z,92.08
2022-12-14T12:47:47.174Z,92.29
2022-12-14T12:48:41.418Z,92.29
2022-12-14T12:49:40.415Z,92.40
2022-12-14T12:50:40.487Z,92.40
2022-12-14T12:51:40.397Z,92.50
2022-12-14T12:52:40.400Z,92.50
2022-12-14T12:53:40.378Z,92.50
2022-12-14T12:54:40.419Z,92.40
2022-12-14T12:55:40.329Z,92.40
2022-12-14T12:56:40.475Z,92.29
2022-12-14T12:57:40.337Z,92.40
2022-12-14T12:58:40.349Z,92.46
2022-12-14T12:59:40.346Z,92.46
2022-12-14T13:00:40.286Z,92.46
2022-12-14T13:01:40.328Z,92.57
2022-12-14T13:02:40.408Z,92.57
2022-12-14T13:03:40.315Z,92.57
2022-12-14T13:04:40.268Z,92.46
2022-12-14T13:05:48.702Z,92.57
2022-12-14T13:06:41.257Z,92.46
2022-12-14T13:07:41.209Z,92.46
2022-12-14T13:08:40.181Z,92.46
2022-12-14T13:09:40.211Z,92.46
2022-12-14T13:10:50.604Z,92.35
2022-12-14T13:11:41.308Z,92.35
2022-12-14T13:12:40.140Z,92.25
2022-12-14T13:13:40.129Z,92.35
2022-12-14T13:14:40.158Z,92.46
2022-12-14T13:15:40.162Z,92.57
2022-12-14T13:16:40.126Z,92.57
2022-12-14T13:17:40.118Z,92.46
2022-12-14T13:19:50.411Z,92.57
2022-12-14T13:20:41.091Z,92.57
2022-12-14T13:21:42.095Z,92.67
2022-12-14T13:22:40.008Z,92.77
2022-12-14T13:23:47.336Z,92.88
2022-12-14T13:24:40.970Z,92.88
2022-12-14T13:25:40.952Z,92.88
2022-12-14T13:27:40.963Z,92.57